METAR Data
IDs: Format: Raw Decoded Include TAF

Data at: 1517 UTC 27 Nov 2021

KPAE 271453Z 14007KT 10SM -RA BKN026 OVC065 08/07 A3009 RMK AO2 RAB30 SLP191 P0001 60001 T00830072 56018